sensor_id;sensor_type;location;lat;lon;timestamp;P1;durP1;ratioP1;P2;durP2;ratioP2
10260;SDS011;5175;42.606;23.388;2022-08-21T00:00:19;10.95;;;9.77;;
10260;SDS011;5175;42.606;23.388;2022-08-21T00:02:48;17.10;;;9.70;;
10260;SDS011;5175;42.606;23.388;2022-08-21T00:05:17;12.93;;;10.80;;
10260;SDS011;5175;42.606;23.388;2022-08-21T00:07:45;14.00;;;9.85;;
10260;SDS011;5175;42.606;23.388;2022-08-21T00:10:13;12.40;;;8.50;;
10260;SDS011;5175;42.606;23.388;2022-08-21T00:12:40;13.02;;;8.60;;
10260;SDS011;5175;42.606;23.388;2022-08-21T00:15:09;9.10;;;7.47;;
10260;SDS011;5175;42.606;23.388;2022-08-21T00:17:37;9.77;;;8.07;;
10260;SDS011;5175;42.606;23.388;2022-08-21T00:20:05;10.30;;;7.53;;
10260;SDS011;5175;42.606;23.388;2022-08-21T00:22:34;8.52;;;6.78;;
10260;SDS011;5175;42.606;23.388;2022-08-21T00:25:02;8.13;;;7.32;;
10260;SDS011;5175;42.606;23.388;2022-08-21T00:27:31;12.75;;;7.32;;
10260;SDS011;5175;42.606;23.388;2022-08-21T00:29:58;9.57;;;7.15;;
10260;SDS011;5175;42.606;23.388;2022-08-21T00:32:25;9.35;;;7.05;;
10260;SDS011;5175;42.606;23.388;2022-08-21T00:34:53;9.95;;;7.38;;
10260;SDS011;5175;42.606;23.388;2022-08-21T00:37:21;11.73;;;9.10;;
10260;SDS011;5175;42.606;23.388;2022-08-21T00:39:48;10.90;;;9.27;;
10260;SDS011;5175;42.606;23.388;2022-08-21T00:42:15;12.02;;;9.75;;
10260;SDS011;5175;42.606;23.388;2022-08-21T00:44:45;12.07;;;9.95;;
10260;SDS011;5175;42.606;23.388;2022-08-21T00:47:13;13.88;;;11.40;;
10260;SDS011;5175;42.606;23.388;2022-08-21T00:49:40;19.48;;;14.15;;
10260;SDS011;5175;42.606;23.388;2022-08-21T00:52:09;14.25;;;12.40;;
10260;SDS011;5175;42.606;23.388;2022-08-21T00:54:39;15.90;;;12.68;;
10260;SDS011;5175;42.606;23.388;2022-08-21T00:57:09;18.30;;;13.48;;
10260;SDS011;5175;42.606;23.388;2022-08-21T00:59:41;16.70;;;13.25;;
10260;SDS011;5175;42.606;23.388;2022-08-21T01:02:13;15.23;;;12.18;;
10260;SDS011;5175;42.606;23.388;2022-08-21T01:04:40;16.25;;;13.10;;
10260;SDS011;5175;42.606;23.388;2022-08-21T01:07:07;19.73;;;14.35;;
10260;SDS011;5175;42.606;23.388;2022-08-21T01:09:34;17.58;;;13.38;;
10260;SDS011;5175;42.606;23.388;2022-08-21T01:12:03;16.65;;;12.80;;
10260;SDS011;5175;42.606;23.388;2022-08-21T01:14:30;15.18;;;13.15;;
10260;SDS011;5175;42.606;23.388;2022-08-21T01:16:59;17.13;;;12.93;;
10260;SDS011;5175;42.606;23.388;2022-08-21T01:19:28;16.98;;;12.30;;
10260;SDS011;5175;42.606;23.388;2022-08-21T01:21:56;16.77;;;12.57;;
10260;SDS011;5175;42.606;23.388;2022-08-21T01:24:24;14.20;;;11.82;;
10260;SDS011;5175;42.606;23.388;2022-08-21T01:26:51;14.07;;;12.45;;
10260;SDS011;5175;42.606;23.388;2022-08-21T01:29:23;15.48;;;12.00;;
10260;SDS011;5175;42.606;23.388;2022-08-21T01:31:56;17.27;;;11.30;;
10260;SDS011;5175;42.606;23.388;2022-08-21T01:34:24;15.60;;;12.05;;
10260;SDS011;5175;42.606;23.388;2022-08-21T01:36:50;15.48;;;12.40;;
10260;SDS011;5175;42.606;23.388;2022-08-21T01:39:19;13.63;;;11.68;;
10260;SDS011;5175;42.606;23.388;2022-08-21T01:41:46;15.63;;;12.23;;
10260;SDS011;5175;42.606;23.388;2022-08-21T01:44:12;14.52;;;11.48;;
10260;SDS011;5175;42.606;23.388;2022-08-21T01:46:39;15.25;;;11.57;;
10260;SDS011;5175;42.606;23.388;2022-08-21T01:49:06;13.63;;;11.68;;
10260;SDS011;5175;42.606;23.388;2022-08-21T01:51:33;14.70;;;10.38;;
10260;SDS011;5175;42.606;23.388;2022-08-21T01:54:00;14.00;;;10.60;;
10260;SDS011;5175;42.606;23.388;2022-08-21T01:56:28;14.25;;;11.18;;
10260;SDS011;5175;42.606;23.388;2022-08-21T01:58:55;15.52;;;11.38;;
10260;SDS011;5175;42.606;23.388;2022-08-21T02:01:21;15.00;;;11.25;;
10260;SDS011;5175;42.606;23.388;2022-08-21T02:03:49;14.63;;;10.55;;
10260;SDS011;5175;42.606;23.388;2022-08-21T02:06:16;10.98;;;9.88;;
10260;SDS011;5175;42.606;23.388;2022-08-21T02:08:43;13.50;;;10.00;;
10260;SDS011;5175;42.606;23.388;2022-08-21T02:11:10;14.18;;;10.27;;
10260;SDS011;5175;42.606;23.388;2022-08-21T02:13:38;11.57;;;9.07;;
10260;SDS011;5175;42.606;23.388;2022-08-21T02:16:05;10.45;;;7.55;;
10260;SDS011;5175;42.606;23.388;2022-08-21T02:18:32;11.98;;;8.27;;
10260;SDS011;5175;42.606;23.388;2022-08-21T02:20:59;14.32;;;9.20;;
10260;SDS011;5175;42.606;23.388;2022-08-21T02:23:26;11.70;;;8.02;;
10260;SDS011;5175;42.606;23.388;2022-08-21T02:25:53;10.70;;;7.20;;
10260;SDS011;5175;42.606;23.388;2022-08-21T02:28:20;9.13;;;6.28;;
10260;SDS011;5175;42.606;23.388;2022-08-21T02:30:48;11.73;;;7.00;;
10260;SDS011;5175;42.606;23.388;2022-08-21T02:33:16;9.05;;;5.38;;
10260;SDS011;5175;42.606;23.388;2022-08-21T02:35:44;8.63;;;5.55;;
10260;SDS011;5175;42.606;23.388;2022-08-21T02:38:13;7.10;;;5.13;;
10260;SDS011;5175;42.606;23.388;2022-08-21T02:40:43;9.45;;;5.78;;
10260;SDS011;5175;42.606;23.388;2022-08-21T02:43:11;9.43;;;5.90;;
10260;SDS011;5175;42.606;23.388;2022-08-21T02:45:39;9.77;;;5.78;;
10260;SDS011;5175;42.606;23.388;2022-08-21T02:48:08;9.10;;;5.93;;
10260;SDS011;5175;42.606;23.388;2022-08-21T02:50:37;8.70;;;6.18;;
10260;SDS011;5175;42.606;23.388;2022-08-21T02:53:06;9.98;;;6.38;;
10260;SDS011;5175;42.606;23.388;2022-08-21T02:55:36;8.73;;;5.80;;
10260;SDS011;5175;42.606;23.388;2022-08-21T02:58:04;9.23;;;5.50;;
10260;SDS011;5175;42.606;23.388;2022-08-21T03:00:33;7.22;;;5.43;;
10260;SDS011;5175;42.606;23.388;2022-08-21T03:03:00;8.70;;;5.20;;
10260;SDS011;5175;42.606;23.388;2022-08-21T03:05:30;7.30;;;5.70;;
10260;SDS011;5175;42.606;23.388;2022-08-21T03:07:59;8.85;;;6.13;;
10260;SDS011;5175;42.606;23.388;2022-08-21T03:10:26;9.77;;;6.38;;
10260;SDS011;5175;42.606;23.388;2022-08-21T03:12:53;8.10;;;5.05;;
10260;SDS011;5175;42.606;23.388;2022-08-21T03:15:21;9.55;;;5.43;;
10260;SDS011;5175;42.606;23.388;2022-08-21T03:17:49;6.75;;;5.32;;
10260;SDS011;5175;42.606;23.388;2022-08-21T03:20:20;8.18;;;4.75;;
10260;SDS011;5175;42.606;23.388;2022-08-21T03:22:50;7.45;;;4.47;;
10260;SDS011;5175;42.606;23.388;2022-08-21T03:25:18;6.60;;;4.68;;
10260;SDS011;5175;42.606;23.388;2022-08-21T03:27:46;5.50;;;4.53;;
10260;SDS011;5175;42.606;23.388;2022-08-21T03:30:14;7.50;;;4.57;;
10260;SDS011;5175;42.606;23.388;2022-08-21T03:32:42;7.93;;;4.15;;
10260;SDS011;5175;42.606;23.388;2022-08-21T03:35:09;9.57;;;4.90;;
10260;SDS011;5175;42.606;23.388;2022-08-21T03:37:36;7.78;;;5.05;;
10260;SDS011;5175;42.606;23.388;2022-08-21T03:40:04;10.73;;;5.43;;
10260;SDS011;5175;42.606;23.388;2022-08-21T03:42:32;9.52;;;5.13;;
10260;SDS011;5175;42.606;23.388;2022-08-21T03:45:00;7.90;;;5.00;;
10260;SDS011;5175;42.606;23.388;2022-08-21T03:47:27;8.65;;;4.88;;
10260;SDS011;5175;42.606;23.388;2022-08-21T03:49:53;7.23;;;4.80;;
10260;SDS011;5175;42.606;23.388;2022-08-21T03:52:20;7.27;;;5.60;;
10260;SDS011;5175;42.606;23.388;2022-08-21T03:54:48;7.07;;;5.32;;
10260;SDS011;5175;42.606;23.388;2022-08-21T03:57:16;8.57;;;5.53;;
10260;SDS011;5175;42.606;23.388;2022-08-21T03:59:44;7.60;;;4.93;;
10260;SDS011;5175;42.606;23.388;2022-08-21T04:02:11;7.63;;;4.72;;
10260;SDS011;5175;42.606;23.388;2022-08-21T04:04:42;7.47;;;4.80;;
10260;SDS011;5175;42.606;23.388;2022-08-21T04:07:09;6.15;;;4.53;;
10260;SDS011;5175;42.606;23.388;2022-08-21T04:09:36;7.50;;;4.87;;
10260;SDS011;5175;42.606;23.388;2022-08-21T04:12:03;9.93;;;4.65;;
10260;SDS011;5175;42.606;23.388;2022-08-21T04:14:32;6.93;;;4.25;;
10260;SDS011;5175;42.606;23.388;2022-08-21T04:16:58;10.50;;;4.32;;
10260;SDS011;5175;42.606;23.388;2022-08-21T04:19:25;7.28;;;4.07;;
10260;SDS011;5175;42.606;23.388;2022-08-21T04:21:52;10.13;;;4.07;;
10260;SDS011;5175;42.606;23.388;2022-08-21T04:24:19;6.35;;;4.03;;
10260;SDS011;5175;42.606;23.388;2022-08-21T04:26:45;6.68;;;4.20;;
10260;SDS011;5175;42.606;23.388;2022-08-21T04:29:12;8.45;;;4.20;;
10260;SDS011;5175;42.606;23.388;2022-08-21T04:31:40;5.82;;;4.30;;
10260;SDS011;5175;42.606;23.388;2022-08-21T04:34:08;6.25;;;4.13;;
10260;SDS011;5175;42.606;23.388;2022-08-21T04:36:35;10.52;;;4.85;;
10260;SDS011;5175;42.606;23.388;2022-08-21T04:39:02;8.23;;;5.13;;
10260;SDS011;5175;42.606;23.388;2022-08-21T04:41:29;6.43;;;4.55;;
10260;SDS011;5175;42.606;23.388;2022-08-21T04:43:56;6.80;;;4.18;;
10260;SDS011;5175;42.606;23.388;2022-08-21T04:46:23;7.15;;;3.90;;
10260;SDS011;5175;42.606;23.388;2022-08-21T04:48:51;8.63;;;4.00;;
10260;SDS011;5175;42.606;23.388;2022-08-21T04:51:20;5.93;;;3.65;;
10260;SDS011;5175;42.606;23.388;2022-08-21T04:53:52;4.85;;;3.60;;
10260;SDS011;5175;42.606;23.388;2022-08-21T04:56:23;6.53;;;4.18;;
10260;SDS011;5175;42.606;23.388;2022-08-21T04:59:00;8.73;;;4.10;;
10260;SDS011;5175;42.606;23.388;2022-08-21T05:01:32;7.70;;;4.25;;
10260;SDS011;5175;42.606;23.388;2022-08-21T05:04:04;7.72;;;3.97;;
10260;SDS011;5175;42.606;23.388;2022-08-21T05:06:34;7.30;;;4.40;;
10260;SDS011;5175;42.606;23.388;2022-08-21T05:09:05;6.65;;;3.80;;
10260;SDS011;5175;42.606;23.388;2022-08-21T05:11:34;8.48;;;4.05;;
10260;SDS011;5175;42.606;23.388;2022-08-21T05:14:02;7.07;;;4.53;;
10260;SDS011;5175;42.606;23.388;2022-08-21T05:16:29;7.47;;;3.80;;
10260;SDS011;5175;42.606;23.388;2022-08-21T05:18:55;6.97;;;4.03;;
10260;SDS011;5175;42.606;23.388;2022-08-21T05:21:23;9.23;;;4.40;;
10260;SDS011;5175;42.606;23.388;2022-08-21T05:23:51;7.20;;;4.53;;
10260;SDS011;5175;42.606;23.388;2022-08-21T05:26:18;6.15;;;4.22;;
10260;SDS011;5175;42.606;23.388;2022-08-21T05:28:45;8.45;;;4.80;;
10260;SDS011;5175;42.606;23.388;2022-08-21T05:31:11;6.72;;;4.25;;
10260;SDS011;5175;42.606;23.388;2022-08-21T05:33:38;7.90;;;4.68;;
10260;SDS011;5175;42.606;23.388;2022-08-21T05:36:05;7.38;;;4.53;;
10260;SDS011;5175;42.606;23.388;2022-08-21T05:38:33;8.35;;;4.47;;
10260;SDS011;5175;42.606;23.388;2022-08-21T05:41:00;6.43;;;4.22;;
10260;SDS011;5175;42.606;23.388;2022-08-21T05:43:27;6.30;;;4.03;;
10260;SDS011;5175;42.606;23.388;2022-08-21T05:45:53;6.10;;;4.40;;
10260;SDS011;5175;42.606;23.388;2022-08-21T05:48:21;6.90;;;4.28;;
10260;SDS011;5175;42.606;23.388;2022-08-21T05:50:49;7.72;;;3.90;;
10260;SDS011;5175;42.606;23.388;2022-08-21T05:53:17;4.97;;;3.78;;
10260;SDS011;5175;42.606;23.388;2022-08-21T05:55:48;8.13;;;4.30;;
10260;SDS011;5175;42.606;23.388;2022-08-21T05:58:16;7.07;;;4.60;;
10260;SDS011;5175;42.606;23.388;2022-08-21T06:00:45;7.88;;;4.05;;
10260;SDS011;5175;42.606;23.388;2022-08-21T06:03:14;6.45;;;4.07;;
10260;SDS011;5175;42.606;23.388;2022-08-21T06:05:43;9.70;;;5.43;;
10260;SDS011;5175;42.606;23.388;2022-08-21T06:08:10;5.80;;;5.20;;
10260;SDS011;5175;42.606;23.388;2022-08-21T06:10:37;9.32;;;5.10;;
10260;SDS011;5175;42.606;23.388;2022-08-21T06:13:06;8.57;;;5.85;;
10260;SDS011;5175;42.606;23.388;2022-08-21T06:15:33;10.65;;;6.03;;
10260;SDS011;5175;42.606;23.388;2022-08-21T06:18:00;9.30;;;6.22;;
10260;SDS011;5175;42.606;23.388;2022-08-21T06:20:27;8.15;;;6.07;;
10260;SDS011;5175;42.606;23.388;2022-08-21T06:22:54;7.45;;;6.05;;
10260;SDS011;5175;42.606;23.388;2022-08-21T06:25:20;8.55;;;5.20;;
10260;SDS011;5175;42.606;23.388;2022-08-21T06:27:47;7.63;;;5.80;;
10260;SDS011;5175;42.606;23.388;2022-08-21T06:30:15;7.38;;;5.70;;
10260;SDS011;5175;42.606;23.388;2022-08-21T06:32:43;8.88;;;6.28;;
10260;SDS011;5175;42.606;23.388;2022-08-21T06:35:09;8.75;;;6.07;;
10260;SDS011;5175;42.606;23.388;2022-08-21T06:37:36;5.85;;;5.10;;
10260;SDS011;5175;42.606;23.388;2022-08-21T06:40:03;7.72;;;5.95;;
10260;SDS011;5175;42.606;23.388;2022-08-21T06:42:31;6.68;;;5.55;;
10260;SDS011;5175;42.606;23.388;2022-08-21T06:44:58;7.80;;;5.90;;
10260;SDS011;5175;42.606;23.388;2022-08-21T06:47:26;7.30;;;5.18;;
10260;SDS011;5175;42.606;23.388;2022-08-21T06:49:53;9.30;;;5.28;;
10260;SDS011;5175;42.606;23.388;2022-08-21T06:52:20;9.57;;;4.90;;
10260;SDS011;5175;42.606;23.388;2022-08-21T06:54:46;7.72;;;4.88;;
10260;SDS011;5175;42.606;23.388;2022-08-21T06:57:13;5.28;;;4.47;;
10260;SDS011;5175;42.606;23.388;2022-08-21T06:59:40;6.88;;;4.95;;
10260;SDS011;5175;42.606;23.388;2022-08-21T07:02:07;8.43;;;5.20;;
10260;SDS011;5175;42.606;23.388;2022-08-21T07:04:35;5.85;;;4.50;;
10260;SDS011;5175;42.606;23.388;2022-08-21T07:07:01;8.95;;;5.13;;
10260;SDS011;5175;42.606;23.388;2022-08-21T07:09:28;7.63;;;4.43;;
10260;SDS011;5175;42.606;23.388;2022-08-21T07:11:55;6.68;;;4.03;;
10260;SDS011;5175;42.606;23.388;2022-08-21T07:14:23;6.75;;;4.35;;
10260;SDS011;5175;42.606;23.388;2022-08-21T07:16:50;7.97;;;4.25;;
10260;SDS011;5175;42.606;23.388;2022-08-21T07:19:17;6.05;;;3.78;;
10260;SDS011;5175;42.606;23.388;2022-08-21T07:21:45;4.82;;;3.63;;
10260;SDS011;5175;42.606;23.388;2022-08-21T07:24:13;6.60;;;4.03;;
10260;SDS011;5175;42.606;23.388;2022-08-21T07:26:40;5.53;;;4.15;;
10260;SDS011;5175;42.606;23.388;2022-08-21T07:29:07;7.05;;;5.03;;
10260;SDS011;5175;42.606;23.388;2022-08-21T07:31:34;7.05;;;4.78;;
10260;SDS011;5175;42.606;23.388;2022-08-21T07:34:00;8.60;;;4.20;;
10260;SDS011;5175;42.606;23.388;2022-08-21T07:36:27;6.50;;;4.60;;
10260;SDS011;5175;42.606;23.388;2022-08-21T07:38:55;8.10;;;4.47;;
10260;SDS011;5175;42.606;23.388;2022-08-21T07:41:22;7.43;;;4.22;;
10260;SDS011;5175;42.606;23.388;2022-08-21T07:43:53;8.15;;;4.20;;
10260;SDS011;5175;42.606;23.388;2022-08-21T07:46:19;8.27;;;4.60;;
10260;SDS011;5175;42.606;23.388;2022-08-21T07:48:46;6.78;;;4.45;;
10260;SDS011;5175;42.606;23.388;2022-08-21T07:51:14;7.60;;;5.10;;
10260;SDS011;5175;42.606;23.388;2022-08-21T07:53:47;8.77;;;5.47;;
10260;SDS011;5175;42.606;23.388;2022-08-21T07:56:16;10.82;;;5.40;;
10260;SDS011;5175;42.606;23.388;2022-08-21T07:58:43;6.82;;;5.60;;
10260;SDS011;5175;42.606;23.388;2022-08-21T08:01:11;10.25;;;5.28;;
10260;SDS011;5175;42.606;23.388;2022-08-21T08:03:38;6.47;;;4.93;;
10260;SDS011;5175;42.606;23.388;2022-08-21T08:06:06;7.50;;;4.80;;
10260;SDS011;5175;42.606;23.388;2022-08-21T08:08:37;9.55;;;5.78;;
10260;SDS011;5175;42.606;23.388;2022-08-21T08:11:04;7.05;;;5.97;;
10260;SDS011;5175;42.606;23.388;2022-08-21T08:13:37;7.32;;;5.82;;
10260;SDS011;5175;42.606;23.388;2022-08-21T08:16:05;11.13;;;5.70;;
10260;SDS011;5175;42.606;23.388;2022-08-21T08:18:32;7.28;;;6.05;;
10260;SDS011;5175;42.606;23.388;2022-08-21T08:20:59;11.18;;;5.55;;
10260;SDS011;5175;42.606;23.388;2022-08-21T08:23:25;7.32;;;5.50;;
10260;SDS011;5175;42.606;23.388;2022-08-21T08:25:52;10.85;;;5.88;;
10260;SDS011;5175;42.606;23.388;2022-08-21T08:28:19;7.85;;;5.90;;
10260;SDS011;5175;42.606;23.388;2022-08-21T08:30:48;8.60;;;5.60;;
10260;SDS011;5175;42.606;23.388;2022-08-21T08:33:15;7.40;;;5.80;;
10260;SDS011;5175;42.606;23.388;2022-08-21T08:35:44;10.77;;;6.18;;
10260;SDS011;5175;42.606;23.388;2022-08-21T08:38:12;9.20;;;6.43;;
10260;SDS011;5175;42.606;23.388;2022-08-21T08:40:44;8.90;;;6.43;;
10260;SDS011;5175;42.606;23.388;2022-08-21T08:43:17;8.70;;;6.18;;
10260;SDS011;5175;42.606;23.388;2022-08-21T08:45:46;9.15;;;6.70;;
10260;SDS011;5175;42.606;23.388;2022-08-21T08:48:21;8.48;;;6.50;;
10260;SDS011;5175;42.606;23.388;2022-08-21T08:50:59;9.60;;;6.18;;
10260;SDS011;5175;42.606;23.388;2022-08-21T08:53:30;8.25;;;6.55;;
10260;SDS011;5175;42.606;23.388;2022-08-21T08:56:00;14.02;;;7.38;;
10260;SDS011;5175;42.606;23.388;2022-08-21T08:58:30;58.30;;;12.70;;
10260;SDS011;5175;42.606;23.388;2022-08-21T09:00:59;12.23;;;6.93;;
10260;SDS011;5175;42.606;23.388;2022-08-21T09:03:27;10.60;;;6.68;;
10260;SDS011;5175;42.606;23.388;2022-08-21T09:05:56;7.80;;;6.40;;
10260;SDS011;5175;42.606;23.388;2022-08-21T09:08:33;8.13;;;5.88;;
10260;SDS011;5175;42.606;23.388;2022-08-21T09:11:15;12.60;;;5.88;;
10260;SDS011;5175;42.606;23.388;2022-08-21T09:13:58;8.85;;;5.70;;
10260;SDS011;5175;42.606;23.388;2022-08-21T09:16:40;11.15;;;6.15;;
10260;SDS011;5175;42.606;23.388;2022-08-21T09:19:18;8.15;;;6.25;;
10260;SDS011;5175;42.606;23.388;2022-08-21T09:21:56;13.45;;;6.85;;
10260;SDS011;5175;42.606;23.388;2022-08-21T09:24:29;7.25;;;5.93;;
10260;SDS011;5175;42.606;23.388;2022-08-21T09:27:01;10.18;;;6.18;;
10260;SDS011;5175;42.606;23.388;2022-08-21T09:29:34;7.25;;;5.38;;
10260;SDS011;5175;42.606;23.388;2022-08-21T09:32:08;8.32;;;5.60;;
10260;SDS011;5175;42.606;23.388;2022-08-21T09:34:37;7.07;;;5.88;;
10260;SDS011;5175;42.606;23.388;2022-08-21T09:37:03;7.15;;;5.40;;
10260;SDS011;5175;42.606;23.388;2022-08-21T09:39:31;8.05;;;5.88;;
10260;SDS011;5175;42.606;23.388;2022-08-21T09:42:06;8.45;;;5.57;;
10260;SDS011;5175;42.606;23.388;2022-08-21T09:44:35;8.40;;;6.03;;
10260;SDS011;5175;42.606;23.388;2022-08-21T09:47:06;8.52;;;5.75;;
10260;SDS011;5175;42.606;23.388;2022-08-21T09:49:34;8.23;;;5.30;;
10260;SDS011;5175;42.606;23.388;2022-08-21T09:52:02;12.05;;;7.35;;
10260;SDS011;5175;42.606;23.388;2022-08-21T09:54:33;15.13;;;8.15;;
10260;SDS011;5175;42.606;23.388;2022-08-21T09:57:11;10.48;;;5.90;;
10260;SDS011;5175;42.606;23.388;2022-08-21T10:00:16;9.13;;;5.63;;
10260;SDS011;5175;42.606;23.388;2022-08-21T10:02:51;7.65;;;5.38;;
10260;SDS011;5175;42.606;23.388;2022-08-21T10:05:22;12.02;;;5.60;;
10260;SDS011;5175;42.606;23.388;2022-08-21T10:07:51;8.60;;;5.35;;
10260;SDS011;5175;42.606;23.388;2022-08-21T10:10:19;6.38;;;5.47;;
10260;SDS011;5175;42.606;23.388;2022-08-21T10:12:50;8.50;;;5.60;;
10260;SDS011;5175;42.606;23.388;2022-08-21T10:15:24;7.32;;;5.30;;
10260;SDS011;5175;42.606;23.388;2022-08-21T10:18:01;7.60;;;5.38;;
10260;SDS011;5175;42.606;23.388;2022-08-21T10:20:35;6.78;;;5.20;;
10260;SDS011;5175;42.606;23.388;2022-08-21T10:23:12;8.55;;;5.53;;
10260;SDS011;5175;42.606;23.388;2022-08-21T10:25:56;11.05;;;5.32;;
10260;SDS011;5175;42.606;23.388;2022-08-21T10:28:29;9.65;;;5.20;;
10260;SDS011;5175;42.606;23.388;2022-08-21T10:31:09;7.03;;;4.93;;
10260;SDS011;5175;42.606;23.388;2022-08-21T10:33:46;5.38;;;4.80;;
10260;SDS011;5175;42.606;23.388;2022-08-21T10:36:25;10.52;;;5.93;;
10260;SDS011;5175;42.606;23.388;2022-08-21T10:39:03;7.28;;;4.93;;
10260;SDS011;5175;42.606;23.388;2022-08-21T10:41:52;5.78;;;4.78;;
10260;SDS011;5175;42.606;23.388;2022-08-21T10:44:45;7.88;;;5.03;;
10260;SDS011;5175;42.606;23.388;2022-08-21T10:47:22;9.20;;;4.75;;
10260;SDS011;5175;42.606;23.388;2022-08-21T10:50:02;11.52;;;5.47;;
10260;SDS011;5175;42.606;23.388;2022-08-21T10:52:42;7.80;;;5.18;;
10260;SDS011;5175;42.606;23.388;2022-08-21T10:55:23;7.95;;;5.10;;
10260;SDS011;5175;42.606;23.388;2022-08-21T10:57:57;5.85;;;4.70;;
10260;SDS011;5175;42.606;23.388;2022-08-21T11:00:29;6.93;;;4.88;;
10260;SDS011;5175;42.606;23.388;2022-08-21T11:03:02;6.95;;;4.50;;
10260;SDS011;5175;42.606;23.388;2022-08-21T11:05:37;7.63;;;5.00;;
10260;SDS011;5175;42.606;23.388;2022-08-21T11:08:08;7.25;;;4.30;;
10260;SDS011;5175;42.606;23.388;2022-08-21T11:10:39;7.28;;;4.55;;
10260;SDS011;5175;42.606;23.388;2022-08-21T11:13:11;10.13;;;4.95;;
10260;SDS011;5175;42.606;23.388;2022-08-21T11:15:45;7.53;;;4.28;;
10260;SDS011;5175;42.606;23.388;2022-08-21T11:18:21;5.07;;;4.00;;
10260;SDS011;5175;42.606;23.388;2022-08-21T11:20:54;6.63;;;4.18;;
10260;SDS011;5175;42.606;23.388;2022-08-21T11:23:30;5.85;;;4.55;;
10260;SDS011;5175;42.606;23.388;2022-08-21T11:26:05;7.45;;;4.60;;
10260;SDS011;5175;42.606;23.388;2022-08-21T11:28:37;6.65;;;4.20;;
10260;SDS011;5175;42.606;23.388;2022-08-21T11:31:13;6.88;;;4.60;;
10260;SDS011;5175;42.606;23.388;2022-08-21T11:33:55;6.80;;;4.45;;
10260;SDS011;5175;42.606;23.388;2022-08-21T11:36:34;6.03;;;4.22;;
10260;SDS011;5175;42.606;23.388;2022-08-21T11:39:11;4.95;;;4.43;;
10260;SDS011;5175;42.606;23.388;2022-08-21T11:41:47;5.60;;;4.35;;
10260;SDS011;5175;42.606;23.388;2022-08-21T11:44:33;7.63;;;4.30;;
10260;SDS011;5175;42.606;23.388;2022-08-21T11:47:13;6.68;;;4.20;;
10260;SDS011;5175;42.606;23.388;2022-08-21T11:49:49;7.15;;;4.60;;
10260;SDS011;5175;42.606;23.388;2022-08-21T11:52:30;6.93;;;4.28;;
10260;SDS011;5175;42.606;23.388;2022-08-21T11:55:02;7.28;;;4.55;;
10260;SDS011;5175;42.606;23.388;2022-08-21T11:57:35;5.75;;;4.32;;
10260;SDS011;5175;42.606;23.388;2022-08-21T12:00:07;6.95;;;4.65;;
10260;SDS011;5175;42.606;23.388;2022-08-21T12:02:41;5.85;;;4.50;;
10260;SDS011;5175;42.606;23.388;2022-08-21T12:05:12;8.38;;;4.93;;
10260;SDS011;5175;42.606;23.388;2022-08-21T12:08:01;8.07;;;4.70;;
10260;SDS011;5175;42.606;23.388;2022-08-21T12:10:32;5.72;;;4.50;;
10260;SDS011;5175;42.606;23.388;2022-08-21T12:13:08;7.35;;;4.50;;
10260;SDS011;5175;42.606;23.388;2022-08-21T12:15:37;7.40;;;5.03;;
10260;SDS011;5175;42.606;23.388;2022-08-21T12:18:05;6.15;;;4.57;;
10260;SDS011;5175;42.606;23.388;2022-08-21T12:20:35;6.85;;;4.68;;
10260;SDS011;5175;42.606;23.388;2022-08-21T12:23:25;5.75;;;4.50;;
10260;SDS011;5175;42.606;23.388;2022-08-21T12:26:02;11.10;;;4.78;;
10260;SDS011;5175;42.606;23.388;2022-08-21T12:28:37;7.18;;;4.47;;
10260;SDS011;5175;42.606;23.388;2022-08-21T12:31:15;6.20;;;4.82;;
10260;SDS011;5175;42.606;23.388;2022-08-21T12:33:47;6.65;;;4.72;;
10260;SDS011;5175;42.606;23.388;2022-08-21T12:36:19;6.93;;;4.75;;
10260;SDS011;5175;42.606;23.388;2022-08-21T12:38:54;7.63;;;4.97;;
10260;SDS011;5175;42.606;23.388;2022-08-21T12:41:25;5.40;;;4.60;;
10260;SDS011;5175;42.606;23.388;2022-08-21T12:43:57;5.30;;;4.60;;
10260;SDS011;5175;42.606;23.388;2022-08-21T12:46:31;6.72;;;4.90;;
10260;SDS011;5175;42.606;23.388;2022-08-21T12:49:02;6.25;;;5.15;;
10260;SDS011;5175;42.606;23.388;2022-08-21T12:51:36;8.15;;;5.05;;
10260;SDS011;5175;42.606;23.388;2022-08-21T12:54:21;7.43;;;5.25;;
10260;SDS011;5175;42.606;23.388;2022-08-21T12:56:55;6.60;;;5.10;;
10260;SDS011;5175;42.606;23.388;2022-08-21T12:59:24;8.63;;;5.78;;
10260;SDS011;5175;42.606;23.388;2022-08-21T13:01:51;5.32;;;4.82;;
10260;SDS011;5175;42.606;23.388;2022-08-21T13:04:21;7.20;;;5.15;;
10260;SDS011;5175;42.606;23.388;2022-08-21T13:06:53;9.38;;;5.00;;
10260;SDS011;5175;42.606;23.388;2022-08-21T13:09:26;8.18;;;5.30;;
10260;SDS011;5175;42.606;23.388;2022-08-21T13:11:55;6.60;;;5.20;;
10260;SDS011;5175;42.606;23.388;2022-08-21T13:14:24;10.63;;;5.38;;
10260;SDS011;5175;42.606;23.388;2022-08-21T13:16:57;6.80;;;5.10;;
10260;SDS011;5175;42.606;23.388;2022-08-21T13:19:25;7.85;;;5.22;;
10260;SDS011;5175;42.606;23.388;2022-08-21T13:21:54;11.70;;;6.30;;
10260;SDS011;5175;42.606;23.388;2022-08-21T13:24:22;11.30;;;6.07;;
10260;SDS011;5175;42.606;23.388;2022-08-21T13:26:52;7.13;;;5.65;;
10260;SDS011;5175;42.606;23.388;2022-08-21T13:29:20;7.22;;;5.35;;
10260;SDS011;5175;42.606;23.388;2022-08-21T13:31:49;8.43;;;5.63;;
10260;SDS011;5175;42.606;23.388;2022-08-21T13:34:19;8.95;;;5.85;;
10260;SDS011;5175;42.606;23.388;2022-08-21T13:36:49;8.23;;;5.80;;
10260;SDS011;5175;42.606;23.388;2022-08-21T13:39:19;8.35;;;5.80;;
10260;SDS011;5175;42.606;23.388;2022-08-21T13:41:48;7.78;;;6.00;;
10260;SDS011;5175;42.606;23.388;2022-08-21T13:44:19;8.98;;;6.10;;
10260;SDS011;5175;42.606;23.388;2022-08-21T13:46:51;8.25;;;6.00;;
10260;SDS011;5175;42.606;23.388;2022-08-21T13:49:19;8.63;;;5.53;;
10260;SDS011;5175;42.606;23.388;2022-08-21T13:51:49;8.15;;;5.63;;
10260;SDS011;5175;42.606;23.388;2022-08-21T13:54:21;7.82;;;6.50;;
10260;SDS011;5175;42.606;23.388;2022-08-21T13:56:51;9.43;;;5.90;;
10260;SDS011;5175;42.606;23.388;2022-08-21T13:59:29;8.85;;;5.85;;
10260;SDS011;5175;42.606;23.388;2022-08-21T14:01:58;6.53;;;5.88;;
10260;SDS011;5175;42.606;23.388;2022-08-21T14:04:31;6.97;;;6.05;;
10260;SDS011;5175;42.606;23.388;2022-08-21T14:07:01;8.55;;;6.18;;
10260;SDS011;5175;42.606;23.388;2022-08-21T14:09:30;8.50;;;6.63;;
10260;SDS011;5175;42.606;23.388;2022-08-21T14:11:59;10.68;;;6.18;;
10260;SDS011;5175;42.606;23.388;2022-08-21T14:14:30;8.45;;;6.47;;
10260;SDS011;5175;42.606;23.388;2022-08-21T14:17:01;7.00;;;5.93;;
10260;SDS011;5175;42.606;23.388;2022-08-21T14:19:35;9.52;;;5.75;;
10260;SDS011;5175;42.606;23.388;2022-08-21T14:25:07;10.02;;;6.07;;
10260;SDS011;5175;42.606;23.388;2022-08-21T14:27:38;7.75;;;6.00;;
10260;SDS011;5175;42.606;23.388;2022-08-21T14:30:12;7.35;;;5.50;;
10260;SDS011;5175;42.606;23.388;2022-08-21T14:32:44;8.63;;;5.30;;
10260;SDS011;5175;42.606;23.388;2022-08-21T14:35:12;7.53;;;5.28;;
10260;SDS011;5175;42.606;23.388;2022-08-21T14:37:41;6.60;;;5.28;;
10260;SDS011;5175;42.606;23.388;2022-08-21T14:40:08;6.95;;;5.22;;
10260;SDS011;5175;42.606;23.388;2022-08-21T14:42:36;5.40;;;4.88;;
10260;SDS011;5175;42.606;23.388;2022-08-21T14:45:05;5.35;;;4.85;;
10260;SDS011;5175;42.606;23.388;2022-08-21T14:47:38;6.32;;;4.32;;
10260;SDS011;5175;42.606;23.388;2022-08-21T14:50:05;5.20;;;4.70;;
10260;SDS011;5175;42.606;23.388;2022-08-21T14:52:32;8.82;;;5.03;;
10260;SDS011;5175;42.606;23.388;2022-08-21T14:54:59;6.53;;;4.63;;
10260;SDS011;5175;42.606;23.388;2022-08-21T14:57:26;6.53;;;4.95;;
10260;SDS011;5175;42.606;23.388;2022-08-21T14:59:56;6.38;;;4.80;;
10260;SDS011;5175;42.606;23.388;2022-08-21T15:02:24;6.70;;;4.90;;